PWSweather.com
Personal Weather Stations
Station Observations
BLACKWELL
Blackwell, AlfretonGB DE55

BlackwellAlfretonGB DE55

Lat: 53.12076, Lon: -1.354978

Elevation: 410

Station Type: Vantage Pro

High Low Average
Temperature 48.0°F8.9°C 44.4°F6.9°C 45.9°F7.7°C
Dew Point 46.9°F8.3°C 41.5°F5.3°C 44.3°F6.8°C
Winds 2.0 mph 3.2 kmh Calm Calm Calm ECalm E
Wind Gusts 6.0 mph9.7 kmh -- 2.0 mph3.2 kmh
Humidity 96% 88% 94%
Pressure 29.64 in1003.7 mb 29.21 in989.2 mb -
Precipitation 0.29 in7.4 mm - -
Hour Temp Dew Point Humidity Winds Wind Gusts Pressure Precip Precip Rate Daily Precip Total
12:32 AM 45.9°F7.7°C 42.8°F6.0°C 89% Calm Calm -- 29.64 in1003.7 mb 0.00 in0.0 mm 0.00 in0.0 mm 0.00 in0.0 mm
01:32 AM 45.1°F7.3°C 42.4°F5.8°C 90% Calm Calm -- 29.60 in1002.4 mb 0.00 in0.0 mm 0.00 in0.0 mm 0.00 in0.0 mm
02:32 AM 44.8°F7.1°C 42.3°F5.7°C 91% Calm Calm -- 29.56 in1001.0 mb 0.00 in0.0 mm 0.00 in0.0 mm 0.00 in0.0 mm
03:32 AM 44.6°F7.0°C 41.9°F5.5°C 90% Calm Calm -- 29.52 in999.7 mb 0.00 in0.0 mm 0.00 in0.0 mm 0.00 in0.0 mm
04:32 AM 44.8°F7.1°C 41.5°F5.3°C 88% Calm Calm 1.0 mph1.6 kmh 29.48 in998.3 mb 0.00 in0.0 mm 0.00 in0.0 mm 0.00 in0.0 mm
05:32 AM 44.4°F6.9°C 42.3°F5.7°C 92% Calm Calm 1.0 mph1.6 kmh 29.45 in997.3 mb 0.01 in0.3 mm 0.00 in0.0 mm 0.01 in0.3 mm
06:32 AM 44.8°F7.1°C 42.8°F6.0°C 93% Calm Calm 1.0 mph1.6 kmh 29.42 in996.3 mb 0.02 in0.5 mm 0.00 in0.0 mm 0.02 in0.5 mm
07:32 AM 44.4°F6.9°C 42.8°F6.0°C 94% Calm Calm 3.0 mph4.8 kmh 29.38 in994.9 mb 0.04 in1.0 mm 0.00 in0.0 mm 0.07 in1.8 mm
08:32 AM 44.8°F7.1°C 43.5°F6.4°C 95% 2.0 mph E3.2 kmh E 5.0 mph8.0 kmh 29.34 in993.6 mb 0.02 in0.5 mm 0.00 in0.0 mm 0.09 in2.3 mm
09:32 AM 45.7°F7.6°C 44.4°F6.9°C 95% 1.0 mph NE1.6 kmh NE 3.0 mph4.8 kmh 29.30 in992.2 mb 0.02 in0.5 mm 0.00 in0.0 mm 0.11 in2.8 mm
10:32 AM 45.5°F7.5°C 44.2°F6.8°C 95% Calm Calm 3.0 mph4.8 kmh 29.27 in991.2 mb 0.06 in1.5 mm 0.00 in0.0 mm 0.17 in4.3 mm
11:32 AM 46.4°F8.0°C 45.0°F7.2°C 95% Calm Calm 2.0 mph3.2 kmh 29.24 in990.2 mb 0.03 in0.8 mm 0.00 in0.0 mm 0.20 in5.1 mm
12:32 PM 46.8°F8.2°C 45.7°F7.6°C 96% Calm Calm 2.0 mph3.2 kmh 29.22 in989.5 mb 0.03 in0.8 mm 0.00 in0.0 mm 0.23 in5.8 mm
01:32 PM 47.3°F8.5°C 46.2°F7.9°C 96% Calm Calm 2.0 mph3.2 kmh 29.21 in989.2 mb 0.01 in0.3 mm 0.00 in0.0 mm 0.24 in6.1 mm
02:32 PM 48.0°F8.9°C 46.9°F8.3°C 96% Calm Calm 1.0 mph1.6 kmh 29.21 in989.2 mb 0.02 in0.5 mm 0.00 in0.0 mm 0.25 in6.4 mm
03:32 PM 48.0°F8.9°C 46.9°F8.3°C 96% Calm Calm 2.0 mph3.2 kmh 29.21 in989.2 mb 0.02 in0.5 mm 0.00 in0.0 mm 0.28 in7.1 mm
04:32 PM 47.7°F8.7°C 46.6°F8.1°C 96% Calm Calm 5.0 mph8.0 kmh 29.21 in989.2 mb 0.01 in0.3 mm 0.00 in0.0 mm 0.29 in7.4 mm
05:32 PM 47.7°F8.7°C 46.6°F8.1°C 96% Calm Calm 2.0 mph3.2 kmh 29.22 in989.5 mb 0.00 in0.0 mm 0.00 in0.0 mm 0.29 in7.4 mm
06:32 PM 47.5°F8.6°C 46.4°F8.0°C 96% Calm Calm 3.0 mph4.8 kmh 29.23 in989.8 mb 0.00 in0.0 mm 0.00 in0.0 mm 0.29 in7.4 mm
07:32 PM 46.8°F8.2°C 45.7°F7.6°C 96% Calm Calm 2.0 mph3.2 kmh 29.24 in990.2 mb 0.00 in0.0 mm 0.00 in0.0 mm 0.29 in7.4 mm
08:32 PM 45.7°F7.6°C 44.6°F7.0°C 96% 1.0 mph N1.6 kmh N 5.0 mph8.0 kmh 29.25 in990.5 mb 0.00 in0.0 mm 0.00 in0.0 mm 0.29 in7.4 mm
09:32 PM 45.3°F7.4°C 44.2°F6.8°C 96% Calm Calm 5.0 mph8.0 kmh 29.26 in990.9 mb 0.00 in0.0 mm 0.00 in0.0 mm 0.29 in7.4 mm
10:32 PM 45.1°F7.3°C 44.1°F6.7°C 96% 1.0 mph N1.6 kmh N 6.0 mph9.7 kmh 29.27 in991.2 mb 0.00 in0.0 mm 0.00 in0.0 mm 0.29 in7.4 mm
11:32 PM 44.8°F7.1°C 43.7°F6.5°C 96% Calm Calm 3.0 mph4.8 kmh 29.28 in991.5 mb 0.00 in0.0 mm 0.00 in0.0 mm 0.09 in2.3 mm